Kapuskasing, Canada
Current Conditions -  °F | °C
As of 6:00 PM on Sunday 21 Dec 2014 (Local Time) from CYYU Reporting Station
Overcast Overcast  
Wind Chill: 15°   Ceiling: 1700
Heat Index: 25°   Visibility: 15mi
Dew Point: 21°   Wind: 10mph
Humidity: 86%   Direction: 190°S
Pressure: 30.12"   Gusts: NA
Location:  49.42°N, 82.43°W
Report Text: CYYU 212300Z 19009KT 15SM OVC017 M04/M06 A3012 RMK SC8 CIG RAG SLP217
Loading
Personal Weather Stations






























Interactive Weather Map New forecast layout! Learn more

10-Day Weather Forecast

Advertisements
Track Severe Weather on mobile